Time;durP1;ratioP1;P1;durP2;ratioP2;P2;SDS_P1;SDS_P2;PMS_P1;PMS_P2;Temp;Humidity;BMP_temperature;BMP_pressure;BME280_temperature;BME280_humidity;BME280_pressure;Samples;Min_cycle;Max_cycle;Signal;HPM_P1;HPM_P2
2021/09/02 00:00:49;;;;;;;6.67;4.10;;;;;;;14.38;100.00;101818.34;5190118;28;20026;-80
2021/09/02 00:03:19;;;;;;;5.32;3.92;;;;;;;14.44;100.00;101819.94;5194902;28;20272;-79
2021/09/02 00:05:49;;;;;;;8.40;4.20;;;;;;;14.57;100.00;101816.00;5190373;28;20029;-80
2021/09/02 00:08:19;;;;;;;6.13;4.35;;;;;;;14.52;100.00;101823.16;5190227;28;20029;-80
2021/09/02 00:10:50;;;;;;;7.55;4.40;;;;;;;14.52;100.00;101817.91;5185175;28;20064;-80
2021/09/02 00:13:20;;;;;;;7.90;4.20;;;;;;;14.39;100.00;101819.22;5185638;28;20036;-79
2021/09/02 00:15:50;;;;;;;7.60;4.15;;;;;;;14.30;100.00;101819.50;5192829;28;20026;-79
2021/09/02 00:18:21;;;;;;;8.57;4.75;;;;;;;14.33;100.00;101819.41;5190432;28;20029;-79
2021/09/02 00:20:51;;;;;;;6.97;4.57;;;;;;;14.38;100.00;101810.47;5197378;28;20109;-79
2021/09/02 00:23:22;;;;;;;6.60;4.27;;;;;;;14.35;100.00;101814.94;5194570;28;20503;-79
2021/09/02 00:25:52;;;;;;;7.80;4.53;;;;;;;14.30;100.00;101815.13;5194957;28;20271;-81
2021/09/02 00:28:22;;;;;;;7.13;4.55;;;;;;;14.34;100.00;101810.59;5194683;28;20036;-80
2021/09/02 00:30:53;;;;;;;6.75;4.10;;;;;;;14.25;100.00;101811.75;5192957;28;20029;-79
2021/09/02 00:33:23;;;;;;;8.95;4.72;;;;;;;14.35;100.00;101817.56;5184367;28;20076;-78
2021/09/02 00:35:54;;;;;;;7.07;4.80;;;;;;;14.35;100.00;101807.06;5194342;28;20025;-79
2021/09/02 00:38:25;;;;;;;6.28;4.40;;;;;;;14.45;100.00;101821.66;5194751;28;20030;-79
2021/09/02 00:40:55;;;;;;;10.00;4.68;;;;;;;14.43;100.00;101815.59;5194525;28;20025;-79
2021/09/02 00:43:26;;;;;;;8.00;4.55;;;;;;;14.26;100.00;101813.47;5183249;28;20034;-79
2021/09/02 00:45:56;;;;;;;6.32;3.88;;;;;;;14.02;100.00;101808.91;5183999;28;20022;-79
2021/09/02 00:48:27;;;;;;;5.07;3.92;;;;;;;13.87;100.00;101813.75;5193793;28;20036;-78
2021/09/02 00:50:57;;;;;;;6.32;3.75;;;;;;;13.88;100.00;101815.50;5193953;28;20120;-78
2021/09/02 00:53:30;;;;;;;6.13;4.18;;;;;;;13.82;100.00;101816.53;5196183;28;20032;-78
2021/09/02 00:56:00;;;;;;;6.18;3.65;;;;;;;13.71;100.00;101823.84;5193986;28;20029;-78
2021/09/02 00:58:31;;;;;;;6.18;4.22;;;;;;;13.75;100.00;101819.38;5194975;28;20032;-78
2021/09/02 01:01:03;;;;;;;8.52;4.50;;;;;;;13.78;100.00;101820.13;5194605;28;20033;-79
2021/09/02 01:03:35;;;;;;;6.68;4.05;;;;;;;13.80;100.00;101818.34;5186474;28;20026;-79
2021/09/02 01:06:05;;;;;;;6.88;4.00;;;;;;;13.76;100.00;101831.63;5190355;28;20087;-80
2021/09/02 01:08:36;;;;;;;8.20;3.88;;;;;;;13.75;100.00;101824.63;5193822;28;20050;-80
2021/09/02 01:11:07;;;;;;;7.78;4.32;;;;;;;13.80;100.00;101820.09;5186474;28;20036;-78
2021/09/02 01:13:37;;;;;;;10.80;5.15;;;;;;;13.90;100.00;101818.94;5187969;28;20022;-78
2021/09/02 01:16:07;;;;;;;8.05;4.88;;;;;;;13.96;100.00;101818.75;5193769;28;20072;-79
2021/09/02 01:18:37;;;;;;;10.88;6.05;;;;;;;14.07;100.00;101821.94;5186958;28;20018;-79
2021/09/02 01:21:08;;;;;;;13.93;5.80;;;;;;;14.15;100.00;101818.16;5188958;28;20065;-78
2021/09/02 01:23:38;;;;;;;8.82;5.55;;;;;;;14.12;100.00;101815.59;5194306;28;20044;-78
2021/09/02 01:26:15;;;;;;;9.45;5.22;;;;;;;14.14;100.00;101824.34;5193237;28;20443;-79
2021/09/02 01:28:46;;;;;;;10.80;5.00;;;;;;;14.13;100.00;101816.50;5195837;28;20017;-78
2021/09/02 01:31:20;;;;;;;9.38;5.38;;;;;;;14.16;100.00;101816.41;5190505;28;20117;-78
2021/09/02 01:33:51;;;;;;;8.68;5.18;;;;;;;14.11;100.00;101818.31;5192088;28;20371;-78
2021/09/02 01:36:21;;;;;;;10.27;5.40;;;;;;;14.06;100.00;101807.91;5192383;28;20038;-78
2021/09/02 01:38:51;;;;;;;10.57;4.95;;;;;;;14.08;100.00;101814.00;5195750;28;20511;-79
2021/09/02 01:41:21;;;;;;;4.95;3.22;;;;;;;13.45;100.00;101820.22;5185805;28;20108;-79
2021/09/02 01:43:52;;;;;;;5.55;3.72;;;;;;;13.49;100.00;101820.13;5191752;28;20025;-79
2021/09/02 01:46:22;;;;;;;5.47;3.63;;;;;;;13.50;100.00;101828.84;5192595;28;20410;-78
2021/09/02 01:48:54;;;;;;;6.70;3.17;;;;;;;13.25;100.00;101827.78;5194887;28;20025;-78
2021/09/02 01:51:24;;;;;;;4.82;3.00;;;;;;;13.35;100.00;101824.00;5192117;28;20029;-79
2021/09/02 01:53:54;;;;;;;3.88;2.83;;;;;;;13.18;100.00;101829.72;5176771;28;20080;-78
2021/09/02 01:56:25;;;;;;;4.35;2.80;;;;;;;13.38;100.00;101829.19;5191739;28;20120;-78
2021/09/02 01:58:55;;;;;;;6.80;3.33;;;;;;;13.43;100.00;101822.03;5191490;28;20040;-78
2021/09/02 02:01:25;;;;;;;4.45;2.63;;;;;;;13.46;100.00;101822.84;5194251;28;20558;-79
2021/09/02 02:03:55;;;;;;;4.68;3.20;;;;;;;13.48;100.00;101831.53;5181721;28;20041;-77
2021/09/02 02:06:26;;;;;;;7.03;3.20;;;;;;;13.56;100.00;101833.94;5192592;28;20113;-77
2021/09/02 02:08:56;;;;;;;8.50;3.38;;;;;;;13.52;100.00;101827.03;5194894;28;20249;-78
2021/09/02 02:11:26;;;;;;;5.55;3.60;;;;;;;13.52;100.00;101829.66;5189759;28;20038;-78
2021/09/02 02:13:56;;;;;;;7.20;4.28;;;;;;;13.45;100.00;101836.88;5188451;28;20117;-78
2021/09/02 02:16:27;;;;;;;7.55;5.25;;;;;;;13.48;100.00;101831.53;5193549;28;20294;-78
2021/09/02 02:18:57;;;;;;;9.05;5.38;;;;;;;13.61;100.00;101826.78;5191643;28;20036;-76
2021/09/02 02:21:27;;;;;;;11.30;6.18;;;;;;;13.51;100.00;101831.44;5193190;28;20438;-79
2021/09/02 02:23:57;;;;;;;8.55;6.13;;;;;;;13.53;100.00;101824.38;5192016;28;20117;-79
2021/09/02 02:26:29;;;;;;;13.03;6.30;;;;;;;13.58;100.00;101830.34;5194148;28;20027;-79
2021/09/02 02:28:59;;;;;;;10.50;6.63;;;;;;;13.89;100.00;101825.97;5185194;28;20323;-78
2021/09/02 02:31:29;;;;;;;12.68;6.25;;;;;;;13.99;100.00;101818.66;5186856;28;20121;-78
2021/09/02 02:34:00;;;;;;;9.70;5.93;;;;;;;13.93;100.00;101826.75;5193315;28;20029;-78
2021/09/02 02:36:30;;;;;;;13.30;6.28;;;;;;;13.93;100.00;101821.47;5192508;28;20522;-79
2021/09/02 02:39:01;;;;;;;13.02;6.45;;;;;;;14.09;100.00;101818.34;5193490;28;20055;-77
2021/09/02 02:41:32;;;;;;;11.40;5.97;;;;;;;14.06;100.00;101813.19;5192237;28;20053;-79
2021/09/02 02:44:03;;;;;;;9.30;6.22;;;;;;;13.93;100.00;101813.59;5193014;28;20027;-79
2021/09/02 02:46:33;;;;;;;10.85;6.60;;;;;;;14.05;100.00;101813.25;5193027;28;20539;-79
2021/09/02 02:49:03;;;;;;;10.27;6.55;;;;;;;13.94;100.00;101816.16;5192502;28;20041;-79
2021/09/02 02:51:35;;;;;;;11.30;6.50;;;;;;;13.92;100.00;101817.13;5192708;28;20030;-79
2021/09/02 02:54:05;;;;;;;13.32;6.90;;;;;;;13.76;100.00;101816.69;5192262;28;20470;-81
2021/09/02 02:56:35;;;;;;;12.60;6.53;;;;;;;13.83;100.00;101822.63;5194080;28;20381;-81
2021/09/02 02:59:06;;;;;;;13.17;7.40;;;;;;;13.79;100.00;101826.28;5186967;28;20033;-81
2021/09/02 03:01:37;;;;;;;11.98;6.88;;;;;;;13.82;100.00;101816.53;5187872;28;20875;-79
2021/09/02 03:04:07;;;;;;;12.80;6.68;;;;;;;13.70;100.00;101835.28;5193988;28;20510;-79
2021/09/02 03:06:37;;;;;;;9.50;6.50;;;;;;;13.74;100.00;101821.13;5192463;28;20030;-80
2021/09/02 03:09:08;;;;;;;11.80;6.70;;;;;;;13.94;100.00;101820.56;5194452;28;20038;-80
2021/09/02 03:11:38;;;;;;;9.68;6.25;;;;;;;13.73;100.00;101827.28;5186455;28;20407;-80
2021/09/02 03:14:08;;;;;;;10.32;6.57;;;;;;;13.72;100.00;101809.81;5189445;28;20065;-79
2021/09/02 03:16:38;;;;;;;12.80;7.57;;;;;;;13.82;100.00;101816.53;5192090;28;20492;-79
2021/09/02 03:19:09;;;;;;;12.13;6.90;;;;;;;13.64;100.00;101821.44;5193673;28;20038;-80
2021/09/02 03:21:39;;;;;;;9.88;6.32;;;;;;;13.59;100.00;101825.97;5189844;28;20033;-78
2021/09/02 03:24:09;;;;;;;10.98;6.53;;;;;;;13.67;100.00;101823.97;5186174;28;20135;-78
2021/09/02 03:26:40;;;;;;;12.65;6.53;;;;;;;13.54;100.00;101825.25;5191992;28;20418;-80
2021/09/02 03:29:10;;;;;;;10.55;6.38;;;;;;;13.51;100.00;101826.19;5194085;28;20040;-80
2021/09/02 03:31:40;;;;;;;8.65;5.68;;;;;;;13.41;100.00;101824.69;5191614;28;20107;-78
2021/09/02 03:34:10;;;;;;;10.63;6.07;;;;;;;13.43;100.00;101835.19;5193202;28;20044;-78
2021/09/02 03:36:41;;;;;;;9.80;6.50;;;;;;;13.30;100.00;101833.78;5190485;28;20045;-78
2021/09/02 03:39:13;;;;;;;9.85;6.35;;;;;;;13.34;100.00;101835.41;5185767;28;20021;-78
2021/09/02 03:41:43;;;;;;;10.57;6.43;;;;;;;13.14;100.00;101830.72;5184202;28;20025;-79
2021/09/02 03:44:14;;;;;;;10.52;5.75;;;;;;;13.13;100.00;101833.34;5191363;28;20041;-79
2021/09/02 03:46:44;;;;;;;10.57;6.22;;;;;;;13.10;100.00;101836.06;5188899;28;20026;-79
2021/09/02 03:49:14;;;;;;;9.95;6.15;;;;;;;12.79;100.00;101831.59;5191789;28;20087;-79
2021/09/02 03:51:44;;;;;;;12.52;5.97;;;;;;;12.93;100.00;101832.13;5190827;28;20026;-79
2021/09/02 03:54:15;;;;;;;8.18;5.57;;;;;;;13.00;100.00;101838.06;5193186;28;20503;-78
2021/09/02 03:56:45;;;;;;;8.20;5.40;;;;;;;13.06;100.00;101837.06;5190639;28;20080;-78
2021/09/02 03:59:15;;;;;;;9.10;5.25;;;;;;;12.88;100.00;101849.72;5182626;28;20511;-79
2021/09/02 04:01:45;;;;;;;11.60;4.97;;;;;;;12.79;100.00;101842.94;5190385;28;20026;-79
2021/09/02 04:04:16;;;;;;;10.02;5.63;;;;;;;12.77;100.00;101850.00;5177373;28;20030;-79
2021/09/02 04:06:46;;;;;;;10.27;6.13;;;;;;;12.72;100.00;101854.50;5192002;28;20422;-78
2021/09/02 04:09:18;;;;;;;10.75;5.60;;;;;;;12.77;100.00;101855.25;5194121;28;20028;-78
2021/09/02 04:11:48;;;;;;;9.98;5.75;;;;;;;12.64;100.00;101845.94;5185849;28;20109;-79
2021/09/02 04:14:18;;;;;;;10.93;5.78;;;;;;;12.63;100.00;101846.84;5190852;28;20120;-79
2021/09/02 04:16:49;;;;;;;7.68;5.15;;;;;;;12.70;100.00;101845.81;5189399;28;20025;-77
2021/09/02 04:19:19;;;;;;;10.10;5.80;;;;;;;12.70;100.00;101853.69;5186861;28;20029;-79
2021/09/02 04:21:50;;;;;;;9.10;5.47;;;;;;;12.84;100.00;101850.72;5190921;28;20036;-79
2021/09/02 04:24:20;;;;;;;9.55;5.28;;;;;;;12.85;100.00;101844.56;5195476;28;20060;-77
2021/09/02 04:26:50;;;;;;;8.65;5.38;;;;;;;12.86;100.00;101844.53;5186734;28;20101;-79
2021/09/02 04:29:21;;;;;;;9.83;5.67;;;;;;;12.88;100.00;101835.69;5191334;28;20588;-79
2021/09/02 04:31:52;;;;;;;8.25;5.25;;;;;;;13.06;100.00;101843.16;5215635;22;20415;-79
2021/09/02 04:34:22;;;;;;;8.60;5.65;;;;;;;13.04;100.00;101844.94;5186449;28;20474;-79
2021/09/02 04:36:52;;;;;;;8.90;5.00;;;;;;;13.03;100.00;101850.25;5187421;28;20079;-79
2021/09/02 04:39:22;;;;;;;8.00;5.65;;;;;;;12.93;100.00;101843.50;5187196;28;20032;-79
2021/09/02 04:41:53;;;;;;;14.13;7.38;;;;;;;12.81;100.00;101850.78;5172348;28;20026;-79
2021/09/02 04:44:23;;;;;;;9.68;7.10;;;;;;;12.74;100.00;101850.06;5166456;28;20033;-79
2021/09/02 04:46:53;;;;;;;11.20;7.18;;;;;;;12.83;100.00;101862.09;5166851;28;20128;-79
2021/09/02 04:49:24;;;;;;;11.80;7.25;;;;;;;12.87;100.00;101850.63;5185100;28;20029;-80
2021/09/02 04:51:54;;;;;;;10.60;7.10;;;;;;;12.99;100.00;101851.22;5184910;28;20025;-79
2021/09/02 04:54:24;;;;;;;9.30;6.03;;;;;;;13.31;100.00;101854.75;5167381;28;20112;-79
2021/09/02 04:56:55;;;;;;;9.90;6.72;;;;;;;13.33;100.00;101852.06;5187288;28;20045;-79
2021/09/02 04:59:25;;;;;;;8.70;5.85;;;;;;;13.26;100.00;101850.53;5188630;28;20034;-80
2021/09/02 05:01:55;;;;;;;12.13;7.43;;;;;;;13.03;100.00;101853.72;5171021;28;20025;-79
2021/09/02 05:04:26;;;;;;;11.68;7.30;;;;;;;13.07;100.00;101849.28;5186526;28;20537;-79
2021/09/02 05:06:56;;;;;;;14.95;6.90;;;;;;;13.19;100.00;101852.44;5174117;28;20037;-79
2021/09/02 05:09:26;;;;;;;13.43;7.20;;;;;;;13.33;100.00;101847.69;5191264;28;20537;-79
2021/09/02 05:11:56;;;;;;;12.63;6.95;;;;;;;13.27;100.00;101857.50;5178771;28;20116;-79
2021/09/02 05:14:27;;;;;;;10.70;6.75;;;;;;;13.23;100.00;101858.47;5191323;28;20084;-79
2021/09/02 05:16:57;;;;;;;11.80;6.80;;;;;;;13.08;100.00;101861.50;5186612;28;20065;-79
2021/09/02 05:19:27;;;;;;;9.65;6.22;;;;;;;13.48;100.00;101857.78;5179082;28;20372;-79
2021/09/02 05:21:58;;;;;;;9.48;5.80;;;;;;;13.66;100.00;101862.56;5170327;28;20033;-81
2021/09/02 05:24:28;;;;;;;11.85;6.20;;;;;;;13.76;100.00;101868.41;5170590;28;20603;-81
2021/09/02 05:26:58;;;;;;;9.05;6.18;;;;;;;13.88;100.00;101862.81;5171324;28;20029;-78
2021/09/02 05:29:28;;;;;;;7.70;5.00;;;;;;;13.88;100.00;101870.69;5170118;28;20025;-79
2021/09/02 05:31:59;;;;;;;10.30;6.05;;;;;;;13.85;100.00;101868.13;5187296;28;20038;-78
2021/09/02 05:34:29;;;;;;;9.73;6.40;;;;;;;13.88;100.00;101868.91;5171504;28;20060;-78
2021/09/02 05:37:00;;;;;;;10.68;6.68;;;;;;;13.96;100.00;101861.69;5168120;28;20617;-78
2021/09/02 05:39:30;;;;;;;12.85;6.45;;;;;;;14.05;100.00;101861.41;5191773;28;20483;-79
2021/09/02 05:42:01;;;;;;;10.35;5.93;;;;;;;14.20;100.00;101865.38;5170884;28;20104;-79
2021/09/02 05:44:31;;;;;;;13.27;7.90;;;;;;;14.09;100.00;101870.91;5186927;28;20053;-79
2021/09/02 05:47:02;;;;;;;11.15;6.70;;;;;;;13.98;100.00;101869.50;5167807;28;20048;-79
2021/09/02 05:49:32;;;;;;;12.00;7.60;;;;;;;13.98;100.00;101864.25;5185834;28;20543;-79
2021/09/02 05:52:03;;;;;;;11.43;7.55;;;;;;;14.14;100.00;101863.78;5186045;28;20044;-79
2021/09/02 05:54:33;;;;;;;13.32;8.43;;;;;;;14.36;100.00;101866.63;5187068;28;20055;-79
2021/09/02 05:57:04;;;;;;;16.17;9.57;;;;;;;14.57;100.00;101860.75;5190200;28;20037;-79
2021/09/02 05:59:34;;;;;;;16.67;9.68;;;;;;;14.72;100.00;101866.38;5177678;28;20026;-79
2021/09/02 06:02:05;;;;;;;15.57;9.15;;;;;;;15.14;100.00;101865.81;5169577;28;20065;-79
2021/09/02 06:04:35;;;;;;;14.63;8.77;;;;;;;14.99;100.00;101862.84;5169464;28;20479;-79
2021/09/02 06:07:05;;;;;;;13.15;8.63;;;;;;;15.09;100.00;101861.63;5169492;28;20068;-79
2021/09/02 06:09:36;;;;;;;13.52;8.65;;;;;;;15.23;100.00;101859.38;5189897;28;20027;-79
2021/09/02 06:12:07;;;;;;;13.05;8.13;;;;;;;15.16;100.00;101863.16;5171603;28;20494;-79
2021/09/02 06:14:37;;;;;;;17.15;8.68;;;;;;;15.31;100.00;101852.09;5176450;28;20028;-79
2021/09/02 06:17:07;;;;;;;14.07;8.18;;;;;;;15.41;100.00;101856.16;5170613;28;20443;-79
2021/09/02 06:19:38;;;;;;;13.65;8.40;;;;;;;15.32;100.00;101859.13;5169381;28;20303;-79
2021/09/02 06:22:08;;;;;;;14.30;8.07;;;;;;;15.96;100.00;101862.03;5168867;28;20040;-79
2021/09/02 06:24:38;;;;;;;12.57;8.52;;;;;;;15.70;100.00;101862.09;5190343;28;20054;-79
2021/09/02 06:27:08;;;;;;;14.93;7.70;;;;;;;15.85;100.00;101866.81;5186360;28;20033;-79
2021/09/02 06:29:39;;;;;;;13.80;7.57;;;;;;;16.10;100.00;101862.38;5187438;28;20030;-79
2021/09/02 06:32:09;;;;;;;11.75;7.35;;;;;;;16.56;100.00;101867.63;5186720;28;20030;-79
2021/09/02 06:34:39;;;;;;;13.10;7.35;;;;;;;16.57;100.00;101865.84;5190851;28;20017;-79
2021/09/02 06:37:10;;;;;;;12.30;7.32;;;;;;;16.97;100.00;101870.31;5178991;28;20033;-79
2021/09/02 06:39:40;;;;;;;11.98;6.88;;;;;;;17.13;100.00;101865.28;5192804;28;20029;-79
2021/09/02 06:42:10;;;;;;;12.25;6.45;;;;;;;17.26;100.00;101862.03;5189235;28;20495;-79
2021/09/02 06:44:41;;;;;;;10.57;6.40;;;;;;;17.56;100.00;101867.81;5167690;28;20029;-79
2021/09/02 06:47:11;;;;;;;13.48;6.65;;;;;;;17.82;100.00;101864.91;5187543;28;20123;-79
2021/09/02 06:49:41;;;;;;;11.02;6.32;;;;;;;17.91;100.00;101862.69;5177434;28;20042;-79
2021/09/02 06:52:12;;;;;;;12.75;6.28;;;;;;;17.51;100.00;101861.88;5169030;28;20030;-80
2021/09/02 06:54:42;;;;;;;10.57;5.97;;;;;;;17.91;100.00;101857.41;5186924;28;20060;-79
2021/09/02 06:57:12;;;;;;;12.20;5.80;;;;;;;18.30;98.56;101854.72;5186545;28;20293;-79
2021/09/02 06:59:43;;;;;;;12.18;5.45;;;;;;;18.25;98.99;101854.06;5185773;28;20300;-79
2021/09/02 07:02:13;;;;;;;7.63;5.25;;;;;;;18.67;98.37;101854.72;5168027;28;20026;-79
2021/09/02 07:04:43;;;;;;;7.85;4.72;;;;;;;18.93;99.71;101863.94;5186287;28;20018;-80
2021/09/02 07:07:14;;;;;;;8.77;4.50;;;;;;;19.46;93.21;101853.31;5186849;28;20025;-79
2021/09/02 07:09:44;;;;;;;9.65;5.07;;;;;;;18.63;95.93;101866.38;5193873;28;20029;-80
2021/09/02 07:12:14;;;;;;;8.45;4.82;;;;;;;18.94;99.03;101864.81;5188026;28;20026;-80
2021/09/02 07:14:45;;;;;;;8.30;4.35;;;;;;;19.69;93.67;101866.25;5187113;28;20036;-79
2021/09/02 07:17:15;;;;;;;9.47;4.93;;;;;;;19.99;88.07;101862.81;5173230;28;20022;-80
2021/09/02 07:19:45;;;;;;;9.73;4.25;;;;;;;19.87;90.31;101860.84;5168663;28;20580;-80
2021/09/02 07:22:16;;;;;;;9.20;4.67;;;;;;;19.71;90.64;101872.31;5185904;28;20033;-80
2021/09/02 07:24:46;;;;;;;9.20;4.50;;;;;;;19.92;89.49;101864.09;5168851;28;20269;-79
2021/09/02 07:27:16;;;;;;;7.70;3.88;;;;;;;20.61;88.93;101878.84;5187721;28;20021;-80
2021/09/02 07:29:47;;;;;;;9.52;3.90;;;;;;;21.15;83.38;101873.94;5188973;28;20104;-80
2021/09/02 07:32:17;;;;;;;6.80;3.40;;;;;;;20.49;88.55;101876.03;5168773;28;20037;-80
2021/09/02 07:34:49;;;;;;;9.20;4.25;;;;;;;20.34;86.79;101884.84;5186633;28;20270;-79
2021/09/02 07:37:20;;;;;;;7.15;3.40;;;;;;;20.05;88.20;101885.56;5185883;28;20061;-79
2021/09/02 07:39:50;;;;;;;7.95;4.10;;;;;;;18.52;94.33;101903.13;5176988;28;20057;-80
2021/09/02 07:42:20;;;;;;;7.85;4.03;;;;;;;18.42;97.05;101901.81;5169942;28;20507;-79
2021/09/02 07:44:51;;;;;;;8.32;4.15;;;;;;;18.63;96.43;101900.78;5171492;28;20022;-78
2021/09/02 07:47:21;;;;;;;8.73;4.15;;;;;;;18.99;95.18;101894.59;5170260;28;20082;-79
2021/09/02 07:49:51;;;;;;;11.38;4.57;;;;;;;19.77;92.01;101894.09;5185319;28;20566;-78
2021/09/02 07:52:22;;;;;;;9.60;3.97;;;;;;;19.15;91.98;101907.03;5169302;28;20026;-80
2021/09/02 07:54:52;;;;;;;7.00;3.65;;;;;;;18.83;93.82;101909.53;5170049;28;20369;-79
2021/09/02 07:57:22;;;;;;;9.50;4.00;;;;;;;18.59;94.59;101918.66;5173648;28;20046;-80
2021/09/02 07:59:52;;;;;;;9.80;3.83;;;;;;;18.54;95.11;101925.09;5186905;28;20036;-79
2021/09/02 08:02:23;;;;;;;7.77;3.57;;;;;;;18.30;95.70;101915.59;5170339;28;20289;-79
2021/09/02 08:04:53;;;;;;;6.93;3.57;;;;;;;17.94;99.66;101925.16;5176908;28;20647;-79
2021/09/02 08:07:23;;;;;;;11.82;4.30;;;;;;;18.45;99.08;101928.16;5176204;28;20280;-79
2021/09/02 08:09:53;;;;;;;8.17;4.03;;;;;;;18.06;99.93;101930.81;5173426;28;20529;-79
2021/09/02 08:12:24;;;;;;;7.90;4.27;;;;;;;18.05;100.00;101934.38;5188774;28;20303;-79
2021/09/02 08:14:54;;;;;;;9.48;4.32;;;;;;;17.77;100.00;101933.00;5169443;28;20273;-78
2021/09/02 08:17:24;;;;;;;8.55;4.25;;;;;;;17.45;100.00;101933.53;5175966;28;20453;-79
2021/09/02 08:19:54;;;;;;;10.52;5.00;;;;;;;17.53;100.00;101923.47;5169063;28;20033;-79
2021/09/02 08:22:25;;;;;;;11.87;4.37;;;;;;;17.70;100.00;101931.56;5186863;28;20029;-79
2021/09/02 08:24:55;;;;;;;8.85;4.13;;;;;;;17.94;99.51;101925.16;5169245;28;20355;-79
2021/09/02 08:27:25;;;;;;;9.00;4.18;;;;;;;18.18;97.70;101916.16;5194359;28;20037;-79
2021/09/02 08:29:56;;;;;;;9.40;3.78;;;;;;;18.32;96.55;101919.91;5174574;28;20096;-79
2021/09/02 08:32:26;;;;;;;10.25;4.47;;;;;;;18.35;94.63;101916.28;5191193;28;20208;-78
2021/09/02 08:34:56;;;;;;;9.90;4.30;;;;;;;18.17;97.23;101923.22;5172158;28;20017;-78
2021/09/02 08:37:27;;;;;;;8.10;3.78;;;;;;;17.63;100.00;101928.31;5190644;28;20640;-79
2021/09/02 08:39:57;;;;;;;8.80;4.13;;;;;;;18.16;99.54;101926.78;5191974;28;20109;-79
2021/09/02 08:42:27;;;;;;;8.95;4.32;;;;;;;18.19;99.81;101924.00;5192246;28;20022;-79
2021/09/02 08:44:58;;;;;;;7.93;4.20;;;;;;;18.23;100.00;101927.38;5172376;28;20033;-79
2021/09/02 08:47:28;;;;;;;11.00;4.75;;;;;;;18.23;98.42;101927.38;5172150;28;20068;-79
2021/09/02 08:49:59;;;;;;;10.07;4.72;;;;;;;18.52;98.29;101924.28;5190436;28;20041;-79
2021/09/02 08:52:30;;;;;;;9.70;5.03;;;;;;;18.52;96.17;101919.00;5171378;28;20022;-79
2021/09/02 08:55:02;;;;;;;9.38;5.25;;;;;;;18.53;94.31;101916.25;5174945;28;20076;-79
2021/09/02 08:57:33;;;;;;;9.25;4.70;;;;;;;18.26;96.77;101917.53;5172414;28;20032;-79
2021/09/02 09:00:05;;;;;;;10.57;5.13;;;;;;;17.98;98.63;101918.84;5188619;28;20817;-79
2021/09/02 09:02:41;;;;;;;8.93;5.20;;;;;;;18.27;95.55;101923.66;5171815;28;20026;-79
2021/09/02 09:05:16;;;;;;;8.73;5.05;;;;;;;18.39;95.25;101923.13;5190288;28;20037;-78
2021/09/02 09:07:48;;;;;;;8.80;4.57;;;;;;;18.42;97.67;101930.94;5189376;28;20143;-79
2021/09/02 09:10:25;;;;;;;9.27;5.13;;;;;;;17.91;100.00;101935.91;5197599;28;20267;-79
2021/09/02 09:12:59;;;;;;;12.93;5.40;;;;;;;17.85;100.00;101939.66;5189890;28;20045;-79
2021/09/02 09:15:33;;;;;;;9.50;5.13;;;;;;;17.67;100.00;101943.09;5171947;28;20124;-78
2021/09/02 09:18:18;;;;;;;9.52;4.43;;;;;;;17.76;100.00;101949.78;5172437;28;20025;-78
2021/09/02 09:21:07;;;;;;;7.13;4.25;;;;;;;17.94;100.00;101946.34;5188672;28;20034;-79
2021/09/02 09:24:05;;;;;;;10.30;4.90;;;;;;;18.24;99.89;101944.97;5171941;28;20541;-78
2021/09/02 09:26:36;;;;;;;12.00;4.55;;;;;;;18.16;99.65;101944.47;5170040;28;20030;-78
2021/09/02 09:29:18;;;;;;;9.02;4.80;;;;;;;18.16;99.73;101940.03;5190511;28;20028;-79
2021/09/02 09:31:48;;;;;;;11.80;4.30;;;;;;;18.30;98.84;101936.78;5168959;28;20029;-79
2021/09/02 09:34:18;;;;;;;9.25;4.32;;;;;;;18.37;98.59;101935.59;5172764;28;20044;-78
2021/09/02 09:36:48;;;;;;;11.53;4.63;;;;;;;17.97;98.85;101938.28;5187904;28;20034;-79
2021/09/02 09:39:21;;;;;;;10.32;4.28;;;;;;;18.36;98.22;101929.44;5191571;28;20344;-79
2021/09/02 09:41:51;;;;;;;9.18;3.97;;;;;;;18.71;94.80;101927.78;5190212;28;20503;-79
2021/09/02 09:44:27;;;;;;;7.75;3.92;;;;;;;18.86;94.49;101928.78;5170942;28;20025;-79
2021/09/02 09:47:17;;;;;;;8.73;3.63;;;;;;;18.85;93.09;101934.16;5188220;28;20060;-79
2021/09/02 09:49:51;;;;;;;7.18;3.88;;;;;;;18.87;93.37;101927.84;5204404;28;20117;-78
2021/09/02 09:52:33;;;;;;;11.57;4.55;;;;;;;18.96;93.79;101934.50;5185798;28;20495;-79
2021/09/02 09:55:09;;;;;;;8.23;4.13;;;;;;;18.83;94.07;101933.38;5188941;28;20486;-78
2021/09/02 09:57:41;;;;;;;12.10;5.30;;;;;;;19.03;91.26;101935.91;5171335;28;20093;-78
2021/09/02 10:00:19;;;;;;;7.63;4.35;;;;;;;19.20;91.76;101939.50;5171228;28;20049;-78
2021/09/02 10:02:51;;;;;;;9.45;4.65;;;;;;;19.17;90.28;101937.00;5168303;28;20240;-79
2021/09/02 10:05:21;;;;;;;11.63;4.75;;;;;;;19.16;89.57;101929.97;5188624;28;20387;-78
2021/09/02 10:07:54;;;;;;;9.05;4.72;;;;;;;18.54;92.96;101931.22;5174650;28;20022;-80
2021/09/02 10:10:26;;;;;;;10.50;4.45;;;;;;;19.13;91.78;101924.78;5193937;28;20047;-78
2021/09/02 10:12:57;;;;;;;8.77;4.18;;;;;;;19.49;90.04;101912.38;5170523;28;20148;-79
2021/09/02 10:15:30;;;;;;;7.70;4.20;;;;;;;19.53;89.99;101913.94;5189149;28;20140;-78
2021/09/02 10:18:02;;;;;;;7.55;3.85;;;;;;;19.81;88.73;101910.72;5190310;28;20041;-80
2021/09/02 10:20:35;;;;;;;8.48;4.07;;;;;;;19.92;88.47;101908.38;5189925;28;20022;-79
2021/09/02 10:23:06;;;;;;;8.50;4.28;;;;;;;19.69;87.70;101909.56;5176479;28;20032;-78
2021/09/02 10:25:38;;;;;;;9.70;4.13;;;;;;;19.60;88.77;101909.19;5187620;28;20196;-79
2021/09/02 10:28:08;;;;;;;6.95;3.95;;;;;;;19.73;90.10;101911.13;5189255;28;20195;-79
2021/09/02 10:30:53;;;;;;;8.75;3.97;;;;;;;19.88;89.02;101910.31;5203754;22;20041;-79
2021/09/02 10:33:44;;;;;;;8.60;4.43;;;;;;;19.76;89.46;101915.41;5178540;28;20104;-78
2021/09/02 10:36:15;;;;;;;8.65;3.95;;;;;;;19.65;89.27;101910.63;5181106;28;20209;-78
2021/09/02 10:38:54;;;;;;;8.37;4.27;;;;;;;19.36;90.09;101913.94;5185270;28;20024;-80
2021/09/02 10:41:34;;;;;;;8.50;4.22;;;;;;;19.46;88.77;101906.38;5181297;28;20030;-80
2021/09/02 10:44:05;;;;;;;8.80;4.40;;;;;;;19.59;90.12;101905.66;5183254;28;20057;-80
2021/09/02 10:46:46;;;;;;;9.18;4.57;;;;;;;19.37;91.63;101912.13;5182574;28;20022;-80
2021/09/02 10:49:27;;;;;;;7.95;4.10;;;;;;;19.32;90.29;101904.44;5183896;28;20037;-79
2021/09/02 10:52:00;;;;;;;8.48;4.07;;;;;;;19.60;89.55;101896.75;5181544;28;20053;-80
2021/09/02 10:54:36;;;;;;;7.07;4.05;;;;;;;20.06;88.35;101898.75;5182012;28;20036;-79
2021/09/02 10:57:09;;;;;;;9.73;4.30;;;;;;;20.11;87.77;101895.88;5184479;28;20017;-77
2021/09/02 10:59:52;;;;;;;11.60;4.38;;;;;;;20.33;87.56;101897.25;5184795;28;20034;-80
2021/09/02 11:02:22;;;;;;;8.82;4.22;;;;;;;20.09;87.55;101898.59;5181568;28;20067;-79
2021/09/02 11:05:04;;;;;;;8.03;3.90;;;;;;;20.00;89.88;101899.06;5188976;28;20025;-77
2021/09/02 11:07:46;;;;;;;8.18;4.65;;;;;;;19.65;92.52;101889.41;5168080;28;20153;-79
2021/09/02 11:10:19;;;;;;;8.60;3.95;;;;;;;19.67;91.32;101890.22;5181997;28;20037;-80
2021/09/02 11:13:01;;;;;;;9.15;4.20;;;;;;;19.99;89.24;101899.97;5182288;28;20091;-79
2021/09/02 11:15:33;;;;;;;6.40;3.70;;;;;;;20.10;89.39;101896.81;5181659;28;20025;-79
2021/09/02 11:18:05;;;;;;;7.50;4.13;;;;;;;20.00;89.10;101904.38;5184229;28;20152;-81
2021/09/02 11:20:40;;;;;;;7.78;4.40;;;;;;;20.54;86.48;101901.41;5182981;28;20467;-81
2021/09/02 11:23:17;;;;;;;8.40;4.70;;;;;;;20.34;86.15;101896.34;5183475;28;20030;-80
2021/09/02 11:25:50;;;;;;;9.18;3.88;;;;;;;20.40;86.90;101903.09;5183948;28;20033;-81
2021/09/02 11:28:22;;;;;;;8.52;3.80;;;;;;;20.74;86.83;101901.97;5183503;28;20022;-80
2021/09/02 11:30:53;;;;;;;9.02;4.10;;;;;;;20.73;85.97;101905.59;5183901;28;20163;-80
2021/09/02 11:33:23;;;;;;;6.90;3.65;;;;;;;20.59;86.48;101902.00;5166105;28;20104;-81
2021/09/02 11:35:56;;;;;;;8.40;4.30;;;;;;;20.49;85.63;101899.94;5183675;28;20778;-80